sensor_id;sensor_type;location;lat;lon;timestamp;P1;durP1;ratioP1;P2;durP2;ratioP2
31424;SDS011;18054;51.572;7.372;2023-10-13T00:02:35;22.42;;;8.70;;
31424;SDS011;18054;51.572;7.372;2023-10-13T00:05:04;26.70;;;8.90;;
31424;SDS011;18054;51.572;7.372;2023-10-13T00:07:34;30.33;;;9.15;;
31424;SDS011;18054;51.572;7.372;2023-10-13T00:10:03;23.63;;;9.00;;
31424;SDS011;18054;51.572;7.372;2023-10-13T00:12:41;20.90;;;8.48;;
31424;SDS011;18054;51.572;7.372;2023-10-13T00:15:16;21.95;;;8.60;;
31424;SDS011;18054;51.572;7.372;2023-10-13T00:17:50;15.63;;;7.95;;
31424;SDS011;18054;51.572;7.372;2023-10-13T00:20:19;18.98;;;8.18;;
31424;SDS011;18054;51.572;7.372;2023-10-13T00:23:02;20.83;;;7.68;;
31424;SDS011;18054;51.572;7.372;2023-10-13T00:25:30;19.80;;;8.07;;
31424;SDS011;18054;51.572;7.372;2023-10-13T00:28:09;23.10;;;8.90;;
31424;SDS011;18054;51.572;7.372;2023-10-13T00:30:40;17.48;;;8.73;;
31424;SDS011;18054;51.572;7.372;2023-10-13T00:33:10;20.88;;;8.05;;
31424;SDS011;18054;51.572;7.372;2023-10-13T00:35:42;17.17;;;7.82;;
31424;SDS011;18054;51.572;7.372;2023-10-13T00:38:11;23.02;;;8.63;;
31424;SDS011;18054;51.572;7.372;2023-10-13T00:40:40;15.68;;;7.65;;
31424;SDS011;18054;51.572;7.372;2023-10-13T00:43:10;20.77;;;7.93;;
31424;SDS011;18054;51.572;7.372;2023-10-13T00:46:02;12.00;;;7.28;;
31424;SDS011;18054;51.572;7.372;2023-10-13T00:51:13;18.35;;;7.13;;
31424;SDS011;18054;51.572;7.372;2023-10-13T00:53:45;12.77;;;6.32;;
31424;SDS011;18054;51.572;7.372;2023-10-13T00:56:15;18.83;;;6.50;;
31424;SDS011;18054;51.572;7.372;2023-10-13T00:58:50;16.55;;;6.68;;
31424;SDS011;18054;51.572;7.372;2023-10-13T01:01:19;16.55;;;7.32;;
31424;SDS011;18054;51.572;7.372;2023-10-13T01:03:49;14.88;;;7.68;;
31424;SDS011;18054;51.572;7.372;2023-10-13T01:06:23;13.80;;;6.43;;
31424;SDS011;18054;51.572;7.372;2023-10-13T01:08:59;13.95;;;6.95;;
31424;SDS011;18054;51.572;7.372;2023-10-13T01:11:38;21.88;;;7.45;;
31424;SDS011;18054;51.572;7.372;2023-10-13T01:14:05;25.98;;;8.20;;
31424;SDS011;18054;51.572;7.372;2023-10-13T01:16:33;20.13;;;7.45;;
31424;SDS011;18054;51.572;7.372;2023-10-13T01:19:00;15.27;;;7.25;;
31424;SDS011;18054;51.572;7.372;2023-10-13T01:21:33;14.65;;;6.78;;
31424;SDS011;18054;51.572;7.372;2023-10-13T01:24:02;21.05;;;6.65;;
31424;SDS011;18054;51.572;7.372;2023-10-13T01:26:34;13.32;;;7.45;;
31424;SDS011;18054;51.572;7.372;2023-10-13T01:29:05;18.13;;;7.00;;
31424;SDS011;18054;51.572;7.372;2023-10-13T01:31:41;17.38;;;7.22;;
31424;SDS011;18054;51.572;7.372;2023-10-13T01:34:13;20.33;;;7.40;;
31424;SDS011;18054;51.572;7.372;2023-10-13T01:36:47;18.45;;;9.00;;
31424;SDS011;18054;51.572;7.372;2023-10-13T01:39:15;17.25;;;7.38;;
31424;SDS011;18054;51.572;7.372;2023-10-13T01:41:44;17.95;;;8.70;;
31424;SDS011;18054;51.572;7.372;2023-10-13T01:44:11;17.80;;;9.07;;
31424;SDS011;18054;51.572;7.372;2023-10-13T01:46:41;17.67;;;8.23;;
31424;SDS011;18054;51.572;7.372;2023-10-13T01:51:38;15.95;;;8.75;;
31424;SDS011;18054;51.572;7.372;2023-10-13T01:54:06;24.60;;;8.65;;
31424;SDS011;18054;51.572;7.372;2023-10-13T01:56:39;23.83;;;8.98;;
31424;SDS011;18054;51.572;7.372;2023-10-13T01:59:10;16.52;;;8.60;;
31424;SDS011;18054;51.572;7.372;2023-10-13T02:01:39;17.30;;;7.50;;
31424;SDS011;18054;51.572;7.372;2023-10-13T02:04:08;18.52;;;8.00;;
31424;SDS011;18054;51.572;7.372;2023-10-13T02:06:37;20.50;;;7.72;;
31424;SDS011;18054;51.572;7.372;2023-10-13T02:09:05;26.00;;;8.23;;
31424;SDS011;18054;51.572;7.372;2023-10-13T02:11:43;19.83;;;7.85;;
31424;SDS011;18054;51.572;7.372;2023-10-13T02:14:12;19.08;;;8.52;;
31424;SDS011;18054;51.572;7.372;2023-10-13T02:16:43;18.63;;;8.13;;
31424;SDS011;18054;51.572;7.372;2023-10-13T02:19:14;20.60;;;9.05;;
31424;SDS011;18054;51.572;7.372;2023-10-13T02:21:43;20.65;;;8.23;;
31424;SDS011;18054;51.572;7.372;2023-10-13T02:24:13;17.38;;;7.72;;
31424;SDS011;18054;51.572;7.372;2023-10-13T02:26:46;18.85;;;7.72;;
31424;SDS011;18054;51.572;7.372;2023-10-13T02:29:13;18.77;;;7.97;;
31424;SDS011;18054;51.572;7.372;2023-10-13T02:31:45;14.90;;;7.72;;
31424;SDS011;18054;51.572;7.372;2023-10-13T02:34:22;15.85;;;8.13;;
31424;SDS011;18054;51.572;7.372;2023-10-13T02:36:50;15.23;;;7.60;;
31424;SDS011;18054;51.572;7.372;2023-10-13T02:39:17;22.05;;;7.45;;
31424;SDS011;18054;51.572;7.372;2023-10-13T02:41:54;23.27;;;8.88;;
31424;SDS011;18054;51.572;7.372;2023-10-13T02:44:22;17.23;;;8.82;;
31424;SDS011;18054;51.572;7.372;2023-10-13T02:46:57;21.65;;;8.73;;
31424;SDS011;18054;51.572;7.372;2023-10-13T02:49:26;20.05;;;8.90;;
31424;SDS011;18054;51.572;7.372;2023-10-13T02:51:58;20.38;;;7.80;;
31424;SDS011;18054;51.572;7.372;2023-10-13T02:54:31;20.20;;;8.82;;
31424;SDS011;18054;51.572;7.372;2023-10-13T02:57:08;20.92;;;8.60;;
31424;SDS011;18054;51.572;7.372;2023-10-13T02:59:37;19.48;;;8.30;;
31424;SDS011;18054;51.572;7.372;2023-10-13T03:02:07;15.85;;;7.63;;
31424;SDS011;18054;51.572;7.372;2023-10-13T03:07:13;15.37;;;7.47;;
31424;SDS011;18054;51.572;7.372;2023-10-13T03:09:42;12.40;;;7.30;;
31424;SDS011;18054;51.572;7.372;2023-10-13T03:12:19;15.73;;;7.90;;
31424;SDS011;18054;51.572;7.372;2023-10-13T03:14:48;27.80;;;8.00;;
31424;SDS011;18054;51.572;7.372;2023-10-13T03:17:15;14.33;;;7.80;;
31424;SDS011;18054;51.572;7.372;2023-10-13T03:19:46;22.77;;;8.77;;
31424;SDS011;18054;51.572;7.372;2023-10-13T03:22:17;18.60;;;8.55;;
31424;SDS011;18054;51.572;7.372;2023-10-13T03:24:57;17.63;;;9.10;;
31424;SDS011;18054;51.572;7.372;2023-10-13T03:27:28;17.25;;;8.50;;
31424;SDS011;18054;51.572;7.372;2023-10-13T03:30:07;26.90;;;8.77;;
31424;SDS011;18054;51.572;7.372;2023-10-13T03:32:41;19.00;;;8.88;;
31424;SDS011;18054;51.572;7.372;2023-10-13T03:35:12;18.27;;;7.78;;
31424;SDS011;18054;51.572;7.372;2023-10-13T03:37:50;21.20;;;8.52;;
31424;SDS011;18054;51.572;7.372;2023-10-13T03:40:18;17.50;;;8.48;;
31424;SDS011;18054;51.572;7.372;2023-10-13T03:43:12;19.52;;;9.25;;
31424;SDS011;18054;51.572;7.372;2023-10-13T03:45:41;18.80;;;8.85;;
31424;SDS011;18054;51.572;7.372;2023-10-13T03:48:10;28.75;;;9.13;;
31424;SDS011;18054;51.572;7.372;2023-10-13T03:50:43;17.80;;;8.63;;
31424;SDS011;18054;51.572;7.372;2023-10-13T03:53:16;20.60;;;8.95;;
31424;SDS011;18054;51.572;7.372;2023-10-13T03:55:44;16.02;;;8.98;;
31424;SDS011;18054;51.572;7.372;2023-10-13T03:58:16;17.10;;;9.18;;
31424;SDS011;18054;51.572;7.372;2023-10-13T04:00:45;18.77;;;9.65;;
31424;SDS011;18054;51.572;7.372;2023-10-13T04:03:13;20.70;;;9.80;;
31424;SDS011;18054;51.572;7.372;2023-10-13T04:05:45;24.83;;;9.52;;
31424;SDS011;18054;51.572;7.372;2023-10-13T04:08:28;18.05;;;8.98;;
31424;SDS011;18054;51.572;7.372;2023-10-13T04:11:13;17.17;;;9.45;;
31424;SDS011;18054;51.572;7.372;2023-10-13T04:14:00;20.55;;;9.27;;
31424;SDS011;18054;51.572;7.372;2023-10-13T04:16:46;17.17;;;9.00;;
31424;SDS011;18054;51.572;7.372;2023-10-13T04:19:24;21.27;;;10.48;;
31424;SDS011;18054;51.572;7.372;2023-10-13T04:21:53;18.83;;;9.43;;
31424;SDS011;18054;51.572;7.372;2023-10-13T04:24:28;18.95;;;9.30;;
31424;SDS011;18054;51.572;7.372;2023-10-13T04:27:16;15.63;;;8.85;;
31424;SDS011;18054;51.572;7.372;2023-10-13T04:30:04;21.00;;;9.70;;
31424;SDS011;18054;51.572;7.372;2023-10-13T04:32:57;19.02;;;9.70;;
31424;SDS011;18054;51.572;7.372;2023-10-13T04:35:44;13.88;;;8.65;;
31424;SDS011;18054;51.572;7.372;2023-10-13T04:38:24;16.63;;;8.52;;
31424;SDS011;18054;51.572;7.372;2023-10-13T04:41:00;18.23;;;8.57;;
31424;SDS011;18054;51.572;7.372;2023-10-13T04:43:29;19.98;;;8.98;;
31424;SDS011;18054;51.572;7.372;2023-10-13T04:46:22;27.27;;;9.07;;
31424;SDS011;18054;51.572;7.372;2023-10-13T04:49:04;19.63;;;8.75;;
31424;SDS011;18054;51.572;7.372;2023-10-13T04:51:53;21.30;;;9.30;;
31424;SDS011;18054;51.572;7.372;2023-10-13T04:54:26;24.17;;;9.20;;
31424;SDS011;18054;51.572;7.372;2023-10-13T04:57:00;21.48;;;9.77;;
31424;SDS011;18054;51.572;7.372;2023-10-13T04:59:42;14.75;;;9.00;;
31424;SDS011;18054;51.572;7.372;2023-10-13T05:02:24;18.80;;;9.07;;
31424;SDS011;18054;51.572;7.372;2023-10-13T05:05:24;18.75;;;9.75;;
31424;SDS011;18054;51.572;7.372;2023-10-13T05:08:12;15.25;;;9.45;;
31424;SDS011;18054;51.572;7.372;2023-10-13T05:11:01;19.02;;;9.35;;
31424;SDS011;18054;51.572;7.372;2023-10-13T05:13:47;15.57;;;9.10;;
31424;SDS011;18054;51.572;7.372;2023-10-13T05:16:33;26.98;;;9.35;;
31424;SDS011;18054;51.572;7.372;2023-10-13T05:19:19;18.42;;;9.20;;
31424;SDS011;18054;51.572;7.372;2023-10-13T05:22:05;23.60;;;8.90;;
31424;SDS011;18054;51.572;7.372;2023-10-13T05:24:51;23.20;;;7.82;;
31424;SDS011;18054;51.572;7.372;2023-10-13T05:27:37;16.17;;;8.57;;
31424;SDS011;18054;51.572;7.372;2023-10-13T05:30:22;33.53;;;12.38;;
31424;SDS011;18054;51.572;7.372;2023-10-13T05:33:08;21.60;;;9.93;;
31424;SDS011;18054;51.572;7.372;2023-10-13T05:35:54;23.55;;;9.43;;
31424;SDS011;18054;51.572;7.372;2023-10-13T05:38:41;18.58;;;9.70;;
31424;SDS011;18054;51.572;7.372;2023-10-13T05:41:26;20.70;;;9.70;;
31424;SDS011;18054;51.572;7.372;2023-10-13T05:44:12;26.13;;;9.60;;
31424;SDS011;18054;51.572;7.372;2023-10-13T05:46:57;26.80;;;11.35;;
31424;SDS011;18054;51.572;7.372;2023-10-13T05:50:11;24.67;;;9.15;;
31424;SDS011;18054;51.572;7.372;2023-10-13T05:53:15;25.13;;;9.05;;
31424;SDS011;18054;51.572;7.372;2023-10-13T05:56:03;24.77;;;9.27;;
31424;SDS011;18054;51.572;7.372;2023-10-13T05:58:49;23.25;;;8.77;;
31424;SDS011;18054;51.572;7.372;2023-10-13T06:01:35;26.05;;;8.45;;
31424;SDS011;18054;51.572;7.372;2023-10-13T06:04:21;20.70;;;9.23;;
31424;SDS011;18054;51.572;7.372;2023-10-13T06:07:07;16.50;;;8.18;;
31424;SDS011;18054;51.572;7.372;2023-10-13T06:09:53;21.33;;;7.82;;
31424;SDS011;18054;51.572;7.372;2023-10-13T06:12:39;14.70;;;8.13;;
31424;SDS011;18054;51.572;7.372;2023-10-13T06:15:25;19.20;;;7.95;;
31424;SDS011;18054;51.572;7.372;2023-10-13T06:18:10;16.95;;;8.65;;
31424;SDS011;18054;51.572;7.372;2023-10-13T06:20:56;14.50;;;7.85;;
31424;SDS011;18054;51.572;7.372;2023-10-13T06:23:41;21.88;;;8.40;;
31424;SDS011;18054;51.572;7.372;2023-10-13T06:26:26;18.67;;;7.20;;
31424;SDS011;18054;51.572;7.372;2023-10-13T06:29:13;19.00;;;7.55;;
31424;SDS011;18054;51.572;7.372;2023-10-13T06:31:47;20.27;;;6.72;;
31424;SDS011;18054;51.572;7.372;2023-10-13T06:34:16;15.65;;;6.70;;
31424;SDS011;18054;51.572;7.372;2023-10-13T06:36:47;15.25;;;6.63;;
31424;SDS011;18054;51.572;7.372;2023-10-13T06:39:15;15.15;;;6.45;;
31424;SDS011;18054;51.572;7.372;2023-10-13T06:42:02;15.57;;;6.43;;
31424;SDS011;18054;51.572;7.372;2023-10-13T06:44:32;16.38;;;6.00;;
31424;SDS011;18054;51.572;7.372;2023-10-13T06:47:00;14.88;;;6.03;;
31424;SDS011;18054;51.572;7.372;2023-10-13T06:49:31;20.42;;;5.88;;
31424;SDS011;18054;51.572;7.372;2023-10-13T06:52:07;16.90;;;5.35;;
31424;SDS011;18054;51.572;7.372;2023-10-13T06:54:39;19.73;;;5.10;;
31424;SDS011;18054;51.572;7.372;2023-10-13T06:57:11;20.73;;;6.45;;
31424;SDS011;18054;51.572;7.372;2023-10-13T06:59:51;13.68;;;5.82;;
31424;SDS011;18054;51.572;7.372;2023-10-13T07:02:20;11.93;;;5.15;;
31424;SDS011;18054;51.572;7.372;2023-10-13T07:05:02;14.73;;;5.53;;
31424;SDS011;18054;51.572;7.372;2023-10-13T07:07:35;15.27;;;5.15;;
31424;SDS011;18054;51.572;7.372;2023-10-13T07:10:07;19.73;;;6.07;;
31424;SDS011;18054;51.572;7.372;2023-10-13T07:12:37;13.07;;;5.32;;
31424;SDS011;18054;51.572;7.372;2023-10-13T07:15:11;17.85;;;5.18;;
31424;SDS011;18054;51.572;7.372;2023-10-13T07:17:46;27.55;;;5.50;;
31424;SDS011;18054;51.572;7.372;2023-10-13T07:20:21;12.80;;;5.43;;
31424;SDS011;18054;51.572;7.372;2023-10-13T07:22:59;15.13;;;5.45;;
31424;SDS011;18054;51.572;7.372;2023-10-13T07:25:31;15.40;;;5.90;;
31424;SDS011;18054;51.572;7.372;2023-10-13T07:28:04;22.85;;;5.05;;
31424;SDS011;18054;51.572;7.372;2023-10-13T07:30:36;19.63;;;5.63;;
31424;SDS011;18054;51.572;7.372;2023-10-13T07:33:12;24.13;;;5.95;;
31424;SDS011;18054;51.572;7.372;2023-10-13T07:35:43;16.33;;;5.65;;
31424;SDS011;18054;51.572;7.372;2023-10-13T07:38:19;21.70;;;5.75;;
31424;SDS011;18054;51.572;7.372;2023-10-13T07:40:48;19.58;;;5.45;;
31424;SDS011;18054;51.572;7.372;2023-10-13T07:43:18;12.77;;;5.70;;
31424;SDS011;18054;51.572;7.372;2023-10-13T07:45:50;20.70;;;5.10;;
31424;SDS011;18054;51.572;7.372;2023-10-13T07:48:25;14.52;;;6.00;;
31424;SDS011;18054;51.572;7.372;2023-10-13T07:50:58;20.67;;;5.95;;
31424;SDS011;18054;51.572;7.372;2023-10-13T07:53:28;13.85;;;6.03;;
31424;SDS011;18054;51.572;7.372;2023-10-13T07:56:01;19.75;;;5.18;;
31424;SDS011;18054;51.572;7.372;2023-10-13T07:58:32;24.02;;;6.20;;
31424;SDS011;18054;51.572;7.372;2023-10-13T08:01:02;27.27;;;8.43;;
31424;SDS011;18054;51.572;7.372;2023-10-13T08:03:44;16.75;;;6.43;;
31424;SDS011;18054;51.572;7.372;2023-10-13T08:06:13;14.90;;;6.25;;
31424;SDS011;18054;51.572;7.372;2023-10-13T08:08:53;20.70;;;7.38;;
31424;SDS011;18054;51.572;7.372;2023-10-13T08:11:22;16.98;;;5.78;;
31424;SDS011;18054;51.572;7.372;2023-10-13T08:13:59;18.23;;;5.70;;
31424;SDS011;18054;51.572;7.372;2023-10-13T08:16:57;16.10;;;6.38;;
31424;SDS011;18054;51.572;7.372;2023-10-13T08:19:28;16.65;;;5.40;;
31424;SDS011;18054;51.572;7.372;2023-10-13T08:22:08;15.77;;;5.45;;
31424;SDS011;18054;51.572;7.372;2023-10-13T08:25:03;26.27;;;6.43;;
31424;SDS011;18054;51.572;7.372;2023-10-13T08:27:47;19.17;;;6.75;;
31424;SDS011;18054;51.572;7.372;2023-10-13T08:30:51;11.77;;;5.55;;
31424;SDS011;18054;51.572;7.372;2023-10-13T08:33:21;17.33;;;6.00;;
31424;SDS011;18054;51.572;7.372;2023-10-13T08:35:54;18.77;;;5.82;;
31424;SDS011;18054;51.572;7.372;2023-10-13T08:38:31;23.52;;;5.80;;
31424;SDS011;18054;51.572;7.372;2023-10-13T08:41:17;24.00;;;5.70;;
31424;SDS011;18054;51.572;7.372;2023-10-13T08:44:06;21.65;;;5.10;;
31424;SDS011;18054;51.572;7.372;2023-10-13T08:46:36;15.75;;;5.10;;
31424;SDS011;18054;51.572;7.372;2023-10-13T08:49:34;14.60;;;5.18;;
31424;SDS011;18054;51.572;7.372;2023-10-13T08:52:09;20.83;;;5.18;;
31424;SDS011;18054;51.572;7.372;2023-10-13T08:54:52;34.45;;;6.13;;
31424;SDS011;18054;51.572;7.372;2023-10-13T08:57:40;20.40;;;4.80;;
31424;SDS011;18054;51.572;7.372;2023-10-13T09:00:15;19.10;;;5.07;;
31424;SDS011;18054;51.572;7.372;2023-10-13T09:03:17;22.80;;;5.57;;
31424;SDS011;18054;51.572;7.372;2023-10-13T09:06:07;26.20;;;4.85;;
31424;SDS011;18054;51.572;7.372;2023-10-13T09:08:41;20.75;;;4.50;;
31424;SDS011;18054;51.572;7.372;2023-10-13T09:11:33;26.92;;;6.13;;
31424;SDS011;18054;51.572;7.372;2023-10-13T09:14:16;21.10;;;4.93;;
31424;SDS011;18054;51.572;7.372;2023-10-13T09:17:01;21.00;;;4.55;;
31424;SDS011;18054;51.572;7.372;2023-10-13T09:19:44;22.55;;;4.32;;
31424;SDS011;18054;51.572;7.372;2023-10-13T09:22:22;25.75;;;6.05;;
31424;SDS011;18054;51.572;7.372;2023-10-13T09:24:54;20.80;;;4.68;;
31424;SDS011;18054;51.572;7.372;2023-10-13T09:27:25;18.67;;;4.63;;
31424;SDS011;18054;51.572;7.372;2023-10-13T09:29:55;30.13;;;5.72;;
31424;SDS011;18054;51.572;7.372;2023-10-13T09:32:22;20.67;;;5.28;;
31424;SDS011;18054;51.572;7.372;2023-10-13T09:34:50;23.27;;;4.60;;
31424;SDS011;18054;51.572;7.372;2023-10-13T09:37:18;23.73;;;4.95;;
31424;SDS011;18054;51.572;7.372;2023-10-13T09:39:50;20.02;;;4.55;;
31424;SDS011;18054;51.572;7.372;2023-10-13T09:42:19;19.52;;;4.47;;
31424;SDS011;18054;51.572;7.372;2023-10-13T09:44:50;20.30;;;4.43;;
31424;SDS011;18054;51.572;7.372;2023-10-13T09:47:22;26.88;;;4.50;;
31424;SDS011;18054;51.572;7.372;2023-10-13T09:50:01;21.15;;;5.72;;
31424;SDS011;18054;51.572;7.372;2023-10-13T09:52:42;18.33;;;5.20;;
31424;SDS011;18054;51.572;7.372;2023-10-13T09:55:13;16.33;;;4.05;;
31424;SDS011;18054;51.572;7.372;2023-10-13T09:57:47;20.50;;;4.05;;
31424;SDS011;18054;51.572;7.372;2023-10-13T10:00:16;21.27;;;4.78;;
31424;SDS011;18054;51.572;7.372;2023-10-13T10:03:11;17.63;;;4.57;;
31424;SDS011;18054;51.572;7.372;2023-10-13T10:05:57;31.40;;;4.50;;
31424;SDS011;18054;51.572;7.372;2023-10-13T10:08:33;25.55;;;4.82;;
31424;SDS011;18054;51.572;7.372;2023-10-13T10:11:14;15.52;;;4.85;;
31424;SDS011;18054;51.572;7.372;2023-10-13T10:13:47;18.88;;;5.85;;
31424;SDS011;18054;51.572;7.372;2023-10-13T10:16:22;19.10;;;4.25;;
31424;SDS011;18054;51.572;7.372;2023-10-13T10:18:59;25.08;;;5.07;;
31424;SDS011;18054;51.572;7.372;2023-10-13T10:21:34;15.55;;;5.47;;
31424;SDS011;18054;51.572;7.372;2023-10-13T10:24:13;30.30;;;5.18;;
31424;SDS011;18054;51.572;7.372;2023-10-13T10:26:51;22.83;;;4.78;;
31424;SDS011;18054;51.572;7.372;2023-10-13T10:29:19;20.73;;;5.32;;
31424;SDS011;18054;51.572;7.372;2023-10-13T10:31:47;28.55;;;5.22;;
31424;SDS011;18054;51.572;7.372;2023-10-13T10:34:17;19.83;;;5.30;;
31424;SDS011;18054;51.572;7.372;2023-10-13T10:36:46;18.35;;;4.97;;
31424;SDS011;18054;51.572;7.372;2023-10-13T10:39:18;17.58;;;4.85;;
31424;SDS011;18054;51.572;7.372;2023-10-13T10:41:46;20.45;;;5.47;;
31424;SDS011;18054;51.572;7.372;2023-10-13T10:44:22;28.67;;;5.43;;
31424;SDS011;18054;51.572;7.372;2023-10-13T10:47:10;10.43;;;4.47;;
31424;SDS011;18054;51.572;7.372;2023-10-13T10:52:09;26.88;;;5.47;;
31424;SDS011;18054;51.572;7.372;2023-10-13T10:54:45;20.73;;;5.07;;
31424;SDS011;18054;51.572;7.372;2023-10-13T10:57:18;16.08;;;5.72;;
31424;SDS011;18054;51.572;7.372;2023-10-13T11:02:15;16.30;;;6.28;;
31424;SDS011;18054;51.572;7.372;2023-10-13T11:04:50;21.35;;;5.75;;
31424;SDS011;18054;51.572;7.372;2023-10-13T11:07:22;18.90;;;6.07;;
31424;SDS011;18054;51.572;7.372;2023-10-13T11:09:50;15.32;;;5.22;;
31424;SDS011;18054;51.572;7.372;2023-10-13T11:12:32;15.68;;;5.07;;
31424;SDS011;18054;51.572;7.372;2023-10-13T11:15:01;18.90;;;5.57;;
31424;SDS011;18054;51.572;7.372;2023-10-13T11:17:33;14.48;;;5.05;;
31424;SDS011;18054;51.572;7.372;2023-10-13T11:22:46;16.17;;;4.85;;
31424;SDS011;18054;51.572;7.372;2023-10-13T11:25:21;23.23;;;6.38;;
31424;SDS011;18054;51.572;7.372;2023-10-13T11:28:11;23.08;;;5.72;;
31424;SDS011;18054;51.572;7.372;2023-10-13T11:30:47;12.52;;;5.15;;
31424;SDS011;18054;51.572;7.372;2023-10-13T11:33:19;17.98;;;5.97;;
31424;SDS011;18054;51.572;7.372;2023-10-13T11:35:50;25.42;;;5.18;;
31424;SDS011;18054;51.572;7.372;2023-10-13T11:38:28;21.27;;;5.97;;
31424;SDS011;18054;51.572;7.372;2023-10-13T11:41:03;22.05;;;5.97;;
31424;SDS011;18054;51.572;7.372;2023-10-13T11:43:35;18.40;;;5.30;;
31424;SDS011;18054;51.572;7.372;2023-10-13T11:46:20;15.23;;;5.97;;
31424;SDS011;18054;51.572;7.372;2023-10-13T11:49:05;16.35;;;5.75;;
31424;SDS011;18054;51.572;7.372;2023-10-13T11:51:45;13.15;;;4.93;;
31424;SDS011;18054;51.572;7.372;2023-10-13T11:54:14;18.73;;;5.93;;
31424;SDS011;18054;51.572;7.372;2023-10-13T11:56:42;16.25;;;5.28;;
31424;SDS011;18054;51.572;7.372;2023-10-13T11:59:11;31.38;;;6.70;;
31424;SDS011;18054;51.572;7.372;2023-10-13T12:01:44;16.10;;;4.93;;
31424;SDS011;18054;51.572;7.372;2023-10-13T12:04:28;21.83;;;4.85;;
31424;SDS011;18054;51.572;7.372;2023-10-13T12:07:00;13.38;;;5.15;;
31424;SDS011;18054;51.572;7.372;2023-10-13T12:09:41;25.95;;;5.50;;
31424;SDS011;18054;51.572;7.372;2023-10-13T12:12:26;19.38;;;4.55;;
31424;SDS011;18054;51.572;7.372;2023-10-13T12:14:55;20.33;;;5.03;;
31424;SDS011;18054;51.572;7.372;2023-10-13T12:17:23;23.85;;;5.47;;
31424;SDS011;18054;51.572;7.372;2023-10-13T12:19:56;18.55;;;4.65;;
31424;SDS011;18054;51.572;7.372;2023-10-13T12:22:25;18.15;;;4.40;;
31424;SDS011;18054;51.572;7.372;2023-10-13T12:24:55;19.60;;;5.00;;
31424;SDS011;18054;51.572;7.372;2023-10-13T12:27:24;14.63;;;4.95;;
31424;SDS011;18054;51.572;7.372;2023-10-13T12:30:02;24.48;;;5.15;;
31424;SDS011;18054;51.572;7.372;2023-10-13T12:32:34;16.10;;;4.57;;
31424;SDS011;18054;51.572;7.372;2023-10-13T12:35:04;14.73;;;4.90;;
31424;SDS011;18054;51.572;7.372;2023-10-13T12:37:54;16.08;;;4.80;;
31424;SDS011;18054;51.572;7.372;2023-10-13T12:40:32;20.58;;;5.28;;
31424;SDS011;18054;51.572;7.372;2023-10-13T12:43:17;22.55;;;4.68;;
31424;SDS011;18054;51.572;7.372;2023-10-13T12:46:03;19.00;;;4.50;;
31424;SDS011;18054;51.572;7.372;2023-10-13T12:48:49;16.43;;;4.67;;
31424;SDS011;18054;51.572;7.372;2023-10-13T12:51:32;21.52;;;5.03;;
31424;SDS011;18054;51.572;7.372;2023-10-13T12:54:18;23.88;;;4.90;;
31424;SDS011;18054;51.572;7.372;2023-10-13T12:56:54;25.10;;;6.05;;
31424;SDS011;18054;51.572;7.372;2023-10-13T12:59:24;20.35;;;4.80;;
31424;SDS011;18054;51.572;7.372;2023-10-13T13:01:54;17.38;;;4.93;;
31424;SDS011;18054;51.572;7.372;2023-10-13T13:04:22;22.83;;;5.20;;
31424;SDS011;18054;51.572;7.372;2023-10-13T13:06:56;17.13;;;4.72;;
31424;SDS011;18054;51.572;7.372;2023-10-13T13:09:24;23.42;;;5.47;;
31424;SDS011;18054;51.572;7.372;2023-10-13T13:11:53;29.08;;;4.95;;
31424;SDS011;18054;51.572;7.372;2023-10-13T13:14:24;31.85;;;7.00;;
31424;SDS011;18054;51.572;7.372;2023-10-13T13:16:56;24.75;;;4.68;;
31424;SDS011;18054;51.572;7.372;2023-10-13T13:19:32;21.02;;;5.20;;
31424;SDS011;18054;51.572;7.372;2023-10-13T13:22:05;25.30;;;5.28;;
31424;SDS011;18054;51.572;7.372;2023-10-13T13:24:38;25.27;;;5.00;;
31424;SDS011;18054;51.572;7.372;2023-10-13T13:27:10;26.45;;;5.05;;
31424;SDS011;18054;51.572;7.372;2023-10-13T13:29:40;24.65;;;5.68;;
31424;SDS011;18054;51.572;7.372;2023-10-13T13:32:08;22.63;;;5.93;;
31424;SDS011;18054;51.572;7.372;2023-10-13T13:34:45;20.60;;;6.60;;
31424;SDS011;18054;51.572;7.372;2023-10-13T13:37:23;21.10;;;6.20;;
31424;SDS011;18054;51.572;7.372;2023-10-13T13:39:54;36.35;;;6.57;;
31424;SDS011;18054;51.572;7.372;2023-10-13T13:42:23;25.75;;;5.63;;
31424;SDS011;18054;51.572;7.372;2023-10-13T13:44:51;27.58;;;5.35;;
31424;SDS011;18054;51.572;7.372;2023-10-13T13:47:19;16.30;;;5.10;;
31424;SDS011;18054;51.572;7.372;2023-10-13T13:49:47;29.27;;;5.70;;
31424;SDS011;18054;51.572;7.372;2023-10-13T13:52:19;12.57;;;4.85;;
31424;SDS011;18054;51.572;7.372;2023-10-13T13:55:01;23.33;;;5.18;;
31424;SDS011;18054;51.572;7.372;2023-10-13T13:57:30;31.15;;;5.60;;
31424;SDS011;18054;51.572;7.372;2023-10-13T13:59:58;17.27;;;5.03;;
31424;SDS011;18054;51.572;7.372;2023-10-13T14:02:26;28.20;;;6.57;;
31424;SDS011;18054;51.572;7.372;2023-10-13T14:04:55;26.75;;;5.88;;
31424;SDS011;18054;51.572;7.372;2023-10-13T14:07:23;15.18;;;4.78;;
31424;SDS011;18054;51.572;7.372;2023-10-13T14:09:51;22.02;;;5.13;;
31424;SDS011;18054;51.572;7.372;2023-10-13T14:12:33;20.92;;;4.95;;
31424;SDS011;18054;51.572;7.372;2023-10-13T14:15:10;17.70;;;5.30;;
31424;SDS011;18054;51.572;7.372;2023-10-13T14:17:50;22.70;;;4.78;;
31424;SDS011;18054;51.572;7.372;2023-10-13T14:20:19;21.33;;;4.80;;
31424;SDS011;18054;51.572;7.372;2023-10-13T14:22:47;21.98;;;4.78;;
31424;SDS011;18054;51.572;7.372;2023-10-13T14:25:15;40.63;;;4.90;;
31424;SDS011;18054;51.572;7.372;2023-10-13T14:27:46;32.08;;;5.28;;
31424;SDS011;18054;51.572;7.372;2023-10-13T14:30:14;23.52;;;5.20;;
31424;SDS011;18054;51.572;7.372;2023-10-13T14:32:47;24.83;;;5.93;;
31424;SDS011;18054;51.572;7.372;2023-10-13T14:35:16;26.50;;;5.70;;
31424;SDS011;18054;51.572;7.372;2023-10-13T14:37:44;19.85;;;5.45;;
31424;SDS011;18054;51.572;7.372;2023-10-13T14:40:12;30.25;;;5.20;;
31424;SDS011;18054;51.572;7.372;2023-10-13T14:42:42;39.88;;;7.10;;
31424;SDS011;18054;51.572;7.372;2023-10-13T14:45:14;26.30;;;5.05;;
31424;SDS011;18054;51.572;7.372;2023-10-13T14:47:43;24.23;;;5.60;;
31424;SDS011;18054;51.572;7.372;2023-10-13T14:50:12;38.30;;;5.85;;
31424;SDS011;18054;51.572;7.372;2023-10-13T14:52:47;23.08;;;5.70;;
31424;SDS011;18054;51.572;7.372;2023-10-13T14:55:16;25.50;;;5.20;;
31424;SDS011;18054;51.572;7.372;2023-10-13T14:57:51;22.65;;;5.63;;
31424;SDS011;18054;51.572;7.372;2023-10-13T15:00:23;32.60;;;6.55;;
31424;SDS011;18054;51.572;7.372;2023-10-13T15:02:53;29.02;;;5.22;;
31424;SDS011;18054;51.572;7.372;2023-10-13T15:05:22;28.85;;;5.15;;
31424;SDS011;18054;51.572;7.372;2023-10-13T15:07:50;22.73;;;5.05;;
31424;SDS011;18054;51.572;7.372;2023-10-13T15:10:18;22.42;;;5.53;;
31424;SDS011;18054;51.572;7.372;2023-10-13T15:12:47;26.17;;;5.55;;
31424;SDS011;18054;51.572;7.372;2023-10-13T15:15:15;27.52;;;4.82;;
31424;SDS011;18054;51.572;7.372;2023-10-13T15:17:48;26.95;;;4.70;;
31424;SDS011;18054;51.572;7.372;2023-10-13T15:20:17;20.08;;;5.53;;
31424;SDS011;18054;51.572;7.372;2023-10-13T15:22:45;34.65;;;5.28;;
31424;SDS011;18054;51.572;7.372;2023-10-13T15:25:14;19.45;;;5.70;;
31424;SDS011;18054;51.572;7.372;2023-10-13T15:27:48;17.98;;;5.03;;
31424;SDS011;18054;51.572;7.372;2023-10-13T15:30:22;22.75;;;5.93;;
31424;SDS011;18054;51.572;7.372;2023-10-13T15:32:59;30.50;;;4.97;;
31424;SDS011;18054;51.572;7.372;2023-10-13T15:35:28;24.30;;;5.60;;
31424;SDS011;18054;51.572;7.372;2023-10-13T15:37:56;31.23;;;8.07;;